SAS1817 EKCH-EDDH
Flight info
| Callsign | SAS1817 |
|---|---|
| Flight time | 0h 29m |
| Altitude | 24000 |
| Route | NEXEN2A NEXEN T503 MICOS N850 BOGMU BOGMU3P |
| Aircraft | A320/M-SDE3FGHIRWY/LB1 |
Departure
| Time | 2026-04-26 19:16 |
|---|---|
| Airport | Copenhagen Kastrup Airport (EKCH) |
Arrival
| Time | 2026-04-26 19:45 |
|---|---|
| Airport | Hamburg Helmut Schmidt Airport (EDDH) |
| Time | Latitude | Longitude | Altitude | Speed | Heading |
|---|---|---|---|---|---|
| 2026-04-26 18:59 | 55.62648 | 12.64555 | 28 ft | 0 kts | 282° |
| 2026-04-26 19:05 | 55.62648 | 12.64556 | 24 ft | 0 kts | 282° |
| 2026-04-26 19:07 | 55.62646 | 12.64565 | 27 ft | 2 kts | 282° |
| 2026-04-26 19:07 | 55.62643 | 12.64595 | 24 ft | 2 kts | 282° |
| 2026-04-26 19:07 | 55.62639 | 12.64624 | 25 ft | 2 kts | 263° |
| 2026-04-26 19:08 | 55.62646 | 12.64649 | 24 ft | 1 kts | 195° |
| 2026-04-26 19:08 | 55.62646 | 12.64650 | 24 ft | 0 kts | 195° |
| 2026-04-26 19:09 | 55.62641 | 12.64648 | 24 ft | 4 kts | 193° |
| 2026-04-26 19:10 | 55.62575 | 12.64650 | 24 ft | 11 kts | 177° |
| 2026-04-26 19:10 | 55.62502 | 12.64658 | 26 ft | 10 kts | 173° |
| 2026-04-26 19:10 | 55.62433 | 12.64673 | 24 ft | 10 kts | 173° |
| 2026-04-26 19:10 | 55.62372 | 12.64675 | 24 ft | 7 kts | 180° |
| 2026-04-26 19:11 | 55.62331 | 12.64694 | 24 ft | 5 kts | 144° |
| 2026-04-26 19:11 | 55.62311 | 12.64744 | 24 ft | 6 kts | 123° |
| 2026-04-26 19:11 | 55.62278 | 12.64806 | 24 ft | 8 kts | 152° |
| 2026-04-26 19:11 | 55.62216 | 12.64779 | 25 ft | 11 kts | 214° |
| 2026-04-26 19:12 | 55.62119 | 12.64665 | 25 ft | 22 kts | 213° |
| 2026-04-26 19:12 | 55.61978 | 12.64520 | 24 ft | 23 kts | 197° |
| 2026-04-26 19:12 | 55.61818 | 12.64537 | 26 ft | 24 kts | 169° |
| 2026-04-26 19:12 | 55.61654 | 12.64529 | 25 ft | 25 kts | 203° |
| 2026-04-26 19:13 | 55.61483 | 12.64345 | 24 ft | 33 kts | 213° |
| 2026-04-26 19:13 | 55.61268 | 12.64096 | 24 ft | 39 kts | 213° |
| 2026-04-26 19:13 | 55.61042 | 12.63839 | 24 ft | 38 kts | 213° |
| 2026-04-26 19:13 | 55.60860 | 12.63633 | 24 ft | 18 kts | 211° |
| 2026-04-26 19:14 | 55.60750 | 12.63674 | 24 ft | 13 kts | 131° |
| 2026-04-26 19:14 | 55.60741 | 12.63693 | 24 ft | 0 kts | 131° |
| 2026-04-26 19:14 | 55.60740 | 12.63695 | 24 ft | 2 kts | 131° |
| 2026-04-26 19:15 | 55.60712 | 12.63924 | 28 ft | 16 kts | 38° |
| 2026-04-26 19:15 | 55.60904 | 12.64220 | 25 ft | 70 kts | 41° |
| 2026-04-26 19:15 | 55.61435 | 12.65040 | 27 ft | 130 kts | 41° |
| 2026-04-26 19:15 | 55.62220 | 12.66275 | 193 ft | 160 kts | 41° |
| 2026-04-26 19:16 | 55.63041 | 12.67604 | 853 ft | 161 kts | 44° |
| 2026-04-26 19:16 | 55.63887 | 12.69008 | 1361 ft | 176 kts | 39° |
| 2026-04-26 19:16 | 55.64865 | 12.70523 | 1711 ft | 198 kts | 39° |
| 2026-04-26 19:16 | 55.65987 | 12.72193 | 2055 ft | 223 kts | 38° |
| 2026-04-26 19:17 | 55.67252 | 12.74036 | 2491 ft | 248 kts | 38° |
| 2026-04-26 19:17 | 55.68554 | 12.76185 | 3137 ft | 263 kts | 51° |
| 2026-04-26 19:17 | 55.69342 | 12.79140 | 3979 ft | 272 kts | 78° |
| 2026-04-26 19:17 | 55.69271 | 12.82503 | 4866 ft | 279 kts | 107° |
| 2026-04-26 19:18 | 55.68335 | 12.85505 | 5722 ft | 283 kts | 134° |
| 2026-04-26 19:18 | 55.66723 | 12.87474 | 6571 ft | 284 kts | 162° |
| 2026-04-26 19:18 | 55.64790 | 12.87971 | 7347 ft | 282 kts | 189° |
| 2026-04-26 19:18 | 55.62839 | 12.87459 | 8124 ft | 286 kts | 195° |
| 2026-04-26 19:19 | 55.60867 | 12.86789 | 8891 ft | 292 kts | 195° |
| 2026-04-26 19:19 | 55.58856 | 12.86093 | 9675 ft | 298 kts | 195° |
| 2026-04-26 19:19 | 55.56894 | 12.84959 | 10413 ft | 296 kts | 215° |
| 2026-04-26 19:19 | 55.55258 | 12.82709 | 10763 ft | 308 kts | 230° |
| 2026-04-26 19:20 | 55.54220 | 12.80907 | 10924 ft | 323 kts | 230° |
| 2026-04-26 19:20 | 55.53124 | 12.78971 | 11107 ft | 336 kts | 230° |
| 2026-04-26 19:20 | 55.50869 | 12.75044 | 11663 ft | 356 kts | 228° |
| 2026-04-26 19:20 | 55.48973 | 12.72018 | 11919 ft | 375 kts | 226° |
| 2026-04-26 19:21 | 55.46969 | 12.69012 | 12508 ft | 382 kts | 225° |
| 2026-04-26 19:21 | 55.44911 | 12.66007 | 13158 ft | 386 kts | 225° |
| 2026-04-26 19:21 | 55.42828 | 12.62981 | 13812 ft | 390 kts | 225° |
| 2026-04-26 19:21 | 55.40729 | 12.59915 | 14416 ft | 394 kts | 225° |
| 2026-04-26 19:22 | 55.38620 | 12.56807 | 14987 ft | 397 kts | 225° |
| 2026-04-26 19:22 | 55.36503 | 12.53661 | 15558 ft | 400 kts | 225° |
| 2026-04-26 19:22 | 55.34379 | 12.50487 | 16142 ft | 402 kts | 226° |
| 2026-04-26 19:22 | 55.32240 | 12.47282 | 16686 ft | 405 kts | 226° |
| 2026-04-26 19:23 | 55.30090 | 12.44069 | 17247 ft | 408 kts | 225° |
| 2026-04-26 19:23 | 55.27915 | 12.40833 | 17787 ft | 411 kts | 225° |
| 2026-04-26 19:23 | 55.25732 | 12.37588 | 18339 ft | 413 kts | 225° |
| 2026-04-26 19:23 | 55.23531 | 12.34320 | 18818 ft | 416 kts | 225° |
| 2026-04-26 19:24 | 55.21312 | 12.31037 | 19268 ft | 419 kts | 225° |
| 2026-04-26 19:24 | 55.19077 | 12.27741 | 19717 ft | 422 kts | 225° |
| 2026-04-26 19:24 | 55.14557 | 12.21098 | 20573 ft | 427 kts | 225° |
| 2026-04-26 19:25 | 55.12277 | 12.17745 | 21010 ft | 430 kts | 225° |
| 2026-04-26 19:25 | 55.10760 | 12.15513 | 21288 ft | 431 kts | 225° |
| 2026-04-26 19:25 | 55.07677 | 12.10977 | 21823 ft | 435 kts | 225° |
| 2026-04-26 19:25 | 55.05388 | 12.07621 | 22214 ft | 437 kts | 225° |
| 2026-04-26 19:26 | 55.03048 | 12.04206 | 22606 ft | 440 kts | 225° |
| 2026-04-26 19:26 | 55.00695 | 12.00780 | 22996 ft | 443 kts | 225° |
| 2026-04-26 19:26 | 54.98326 | 11.97336 | 23250 ft | 444 kts | 225° |
| 2026-04-26 19:26 | 54.95951 | 11.93887 | 23290 ft | 444 kts | 225° |
| 2026-04-26 19:27 | 54.93575 | 11.90438 | 23263 ft | 444 kts | 225° |
| 2026-04-26 19:27 | 54.91203 | 11.86998 | 23286 ft | 444 kts | 225° |
| 2026-04-26 19:27 | 54.88832 | 11.83565 | 23290 ft | 444 kts | 225° |
| 2026-04-26 19:27 | 54.86457 | 11.80133 | 23290 ft | 444 kts | 224° |
| 2026-04-26 19:28 | 54.84073 | 11.76729 | 23290 ft | 444 kts | 224° |
| 2026-04-26 19:28 | 54.81674 | 11.73344 | 23290 ft | 444 kts | 224° |
| 2026-04-26 19:28 | 54.79272 | 11.69978 | 23296 ft | 444 kts | 224° |
| 2026-04-26 19:28 | 54.76864 | 11.66617 | 23295 ft | 444 kts | 224° |
| 2026-04-26 19:29 | 54.74459 | 11.63257 | 23293 ft | 444 kts | 224° |
| 2026-04-26 19:29 | 54.72057 | 11.59890 | 23295 ft | 444 kts | 224° |
| 2026-04-26 19:29 | 54.69657 | 11.56519 | 23288 ft | 444 kts | 224° |
| 2026-04-26 19:29 | 54.67259 | 11.53154 | 23295 ft | 444 kts | 224° |
| 2026-04-26 19:30 | 54.64862 | 11.49797 | 23299 ft | 444 kts | 224° |
| 2026-04-26 19:30 | 54.62460 | 11.46442 | 23286 ft | 443 kts | 224° |
| 2026-04-26 19:30 | 54.60078 | 11.43133 | 22682 ft | 438 kts | 224° |
| 2026-04-26 19:30 | 54.58509 | 11.40960 | 22201 ft | 435 kts | 224° |
| 2026-04-26 19:31 | 54.55400 | 11.36658 | 21311 ft | 430 kts | 224° |
| 2026-04-26 19:31 | 54.53051 | 11.33407 | 20525 ft | 427 kts | 224° |
| 2026-04-26 19:31 | 54.50708 | 11.30158 | 19389 ft | 436 kts | 223° |
| 2026-04-26 19:31 | 54.48377 | 11.26926 | 18602 ft | 436 kts | 223° |
| 2026-04-26 19:32 | 54.45992 | 11.23629 | 17789 ft | 432 kts | 223° |
| 2026-04-26 19:32 | 54.43658 | 11.20414 | 16974 ft | 429 kts | 223° |
| 2026-04-26 19:32 | 54.41351 | 11.17245 | 16087 ft | 430 kts | 223° |
| 2026-04-26 19:32 | 54.39018 | 11.14041 | 15319 ft | 428 kts | 223° |
| 2026-04-26 19:33 | 54.36702 | 11.10863 | 14594 ft | 425 kts | 223° |
| 2026-04-26 19:33 | 54.34404 | 11.07716 | 13857 ft | 422 kts | 223° |
| 2026-04-26 19:33 | 54.32121 | 11.04597 | 13085 ft | 418 kts | 222° |
| 2026-04-26 19:33 | 54.29856 | 11.01510 | 12327 ft | 414 kts | 222° |
| 2026-04-26 19:34 | 54.27613 | 10.98453 | 11628 ft | 411 kts | 222° |
| 2026-04-26 19:34 | 54.25381 | 10.95408 | 11346 ft | 411 kts | 222° |
| 2026-04-26 19:34 | 54.23144 | 10.92361 | 11285 ft | 411 kts | 222° |
| 2026-04-26 19:34 | 54.20905 | 10.89314 | 11303 ft | 412 kts | 222° |
| 2026-04-26 19:35 | 54.18664 | 10.86274 | 11302 ft | 412 kts | 221° |
| 2026-04-26 19:35 | 54.16415 | 10.83231 | 11301 ft | 412 kts | 221° |
| 2026-04-26 19:35 | 54.14169 | 10.80194 | 11301 ft | 412 kts | 221° |
| 2026-04-26 19:35 | 54.11935 | 10.77182 | 10861 ft | 406 kts | 221° |
| 2026-04-26 19:36 | 54.09733 | 10.74213 | 10131 ft | 402 kts | 221° |
| 2026-04-26 19:36 | 54.08283 | 10.72258 | 9600 ft | 400 kts | 221° |
| 2026-04-26 19:36 | 54.05392 | 10.68365 | 8645 ft | 392 kts | 221° |
| 2026-04-26 19:36 | 54.03266 | 10.65516 | 7965 ft | 386 kts | 221° |
| 2026-04-26 19:37 | 54.01169 | 10.62713 | 7284 ft | 381 kts | 220° |
| 2026-04-26 19:37 | 53.99109 | 10.59962 | 6843 ft | 369 kts | 220° |
| 2026-04-26 19:37 | 53.97177 | 10.57384 | 6714 ft | 348 kts | 220° |
| 2026-04-26 19:37 | 53.95302 | 10.54885 | 6588 ft | 329 kts | 220° |
| 2026-04-26 19:38 | 53.93544 | 10.52547 | 6461 ft | 313 kts | 220° |
| 2026-04-26 19:38 | 53.91894 | 10.50350 | 6320 ft | 298 kts | 221° |
| 2026-04-26 19:38 | 53.90298 | 10.48224 | 6193 ft | 285 kts | 221° |
| 2026-04-26 19:38 | 53.88777 | 10.46201 | 6062 ft | 273 kts | 221° |
| 2026-04-26 19:39 | 53.87302 | 10.44236 | 5923 ft | 267 kts | 221° |
| 2026-04-26 19:39 | 53.85845 | 10.42291 | 5808 ft | 266 kts | 221° |
| 2026-04-26 19:39 | 53.84397 | 10.40360 | 5672 ft | 264 kts | 221° |
| 2026-04-26 19:39 | 53.82953 | 10.38440 | 5543 ft | 264 kts | 220° |
| 2026-04-26 19:40 | 53.81544 | 10.36468 | 5415 ft | 261 kts | 227° |
| 2026-04-26 19:40 | 53.80332 | 10.34194 | 5262 ft | 260 kts | 232° |
| 2026-04-26 19:40 | 53.79202 | 10.31831 | 4944 ft | 257 kts | 232° |
| 2026-04-26 19:40 | 53.78085 | 10.29510 | 4590 ft | 252 kts | 232° |
| 2026-04-26 19:41 | 53.76978 | 10.27238 | 4241 ft | 248 kts | 231° |
| 2026-04-26 19:41 | 53.75893 | 10.25018 | 3904 ft | 239 kts | 231° |
| 2026-04-26 19:41 | 53.74862 | 10.22909 | 3586 ft | 227 kts | 231° |
| 2026-04-26 19:41 | 53.74207 | 10.21568 | 3380 ft | 221 kts | 231° |
| 2026-04-26 19:42 | 53.72901 | 10.18899 | 2978 ft | 217 kts | 231° |
| 2026-04-26 19:42 | 53.71941 | 10.16937 | 2679 ft | 217 kts | 231° |
| 2026-04-26 19:42 | 53.70978 | 10.14973 | 2379 ft | 217 kts | 232° |
| 2026-04-26 19:42 | 53.70019 | 10.13017 | 2082 ft | 213 kts | 232° |
| 2026-04-26 19:43 | 53.69102 | 10.11151 | 1783 ft | 201 kts | 232° |
| 2026-04-26 19:43 | 53.68229 | 10.09374 | 1512 ft | 192 kts | 232° |
| 2026-04-26 19:43 | 53.67401 | 10.07690 | 1278 ft | 180 kts | 232° |
| 2026-04-26 19:43 | 53.66632 | 10.06129 | 1033 ft | 166 kts | 233° |
| 2026-04-26 19:44 | 53.65935 | 10.04713 | 804 ft | 150 kts | 233° |
| 2026-04-26 19:44 | 53.65287 | 10.03397 | 616 ft | 143 kts | 233° |
| 2026-04-26 19:44 | 53.64661 | 10.02120 | 401 ft | 140 kts | 234° |
| 2026-04-26 19:44 | 53.64041 | 10.00865 | 207 ft | 138 kts | 233° |
| 2026-04-26 19:45 | 53.63429 | 9.99617 | 55 ft | 137 kts | 232° |
| 2026-04-26 19:45 | 53.62937 | 9.98620 | 45 ft | 77 kts | 230° |
| 2026-04-26 19:45 | 53.62743 | 9.98369 | 44 ft | 24 kts | 159° |
| 2026-04-26 19:45 | 53.62666 | 9.98465 | 47 ft | 10 kts | 141° |
| 2026-04-26 19:46 | 53.62554 | 9.98594 | 47 ft | 24 kts | 143° |
| 2026-04-26 19:46 | 53.62538 | 9.98856 | 44 ft | 24 kts | 85° |
| 2026-04-26 19:46 | 53.62568 | 9.99154 | 47 ft | 27 kts | 77° |
| 2026-04-26 19:46 | 53.62608 | 9.99483 | 45 ft | 31 kts | 80° |
| 2026-04-26 19:47 | 53.62658 | 9.99807 | 44 ft | 26 kts | 53° |
| 2026-04-26 19:47 | 53.62760 | 9.99920 | 44 ft | 25 kts | 29° |
| 2026-04-26 19:47 | 53.62823 | 10.00093 | 46 ft | 13 kts | 119° |
| 2026-04-26 19:47 | 53.62841 | 10.00206 | 48 ft | 0 kts | 63° |